Time;durP1;ratioP1;P1;durP2;ratioP2;P2;SDS_P1;SDS_P2;PMS_P1;PMS_P2;Temp;Humidity;BMP_temperature;BMP_pressure;BME280_temperature;BME280_humidity;BME280_pressure;Samples;Min_cycle;Max_cycle;Signal;HPM_P1;HPM_P2
2023/08/29 00:00:55;;;;;;;3.53;2.50;;;19.80;62.80;;;;;;5073598;28;20040;-77
2023/08/29 00:03:27;;;;;;;5.45;2.35;;;20.00;62.40;;;;;;5072270;28;20066;-76
2023/08/29 00:06:04;;;;;;;5.43;2.33;;;20.10;61.70;;;;;;5077568;28;20039;-75
2023/08/29 00:08:33;;;;;;;4.35;2.13;;;20.30;61.00;;;;;;5070678;28;20024;-78
2023/08/29 00:11:04;;;;;;;3.47;1.95;;;20.50;59.60;;;;;;5073504;28;20052;-80
2023/08/29 00:13:31;;;;;;;5.07;2.10;;;20.70;59.70;;;;;;5079252;28;20020;-78
2023/08/29 00:15:59;;;;;;;5.95;1.98;;;20.80;59.00;;;;;;5079990;28;20058;-79
2023/08/29 00:18:26;;;;;;;3.22;2.05;;;21.10;58.20;;;;;;5082580;28;20024;-80
2023/08/29 00:20:54;;;;;;;4.82;2.35;;;21.20;58.10;;;;;;5076638;28;20025;-74
2023/08/29 00:23:25;;;;;;;3.00;1.70;;;21.40;57.10;;;;;;5075492;28;20139;-80
2023/08/29 00:25:52;;;;;;;3.60;1.52;;;21.50;55.90;;;;;;5071571;28;20081;-74
2023/08/29 00:28:20;;;;;;;2.67;1.50;;;21.70;54.80;;;;;;5074220;28;20378;-75
2023/08/29 00:30:47;;;;;;;6.90;1.55;;;21.80;54.70;;;;;;5073414;28;20048;-76
2023/08/29 00:33:16;;;;;;;4.85;1.90;;;21.90;52.50;;;;;;5076319;28;20121;-73
2023/08/29 00:35:46;;;;;;;2.90;1.48;;;22.00;52.70;;;;;;5072222;28;20036;-74
2023/08/29 00:38:15;;;;;;;2.33;1.13;;;22.20;51.20;;;;;;5070382;28;20075;-74
2023/08/29 00:40:42;;;;;;;1.88;1.35;;;22.30;51.20;;;;;;5076188;28;20029;-76
2023/08/29 00:43:10;;;;;;;2.35;1.27;;;22.20;50.90;;;;;;5070569;28;20062;-76
2023/08/29 00:45:38;;;;;;;3.63;1.52;;;22.30;50.10;;;;;;5077758;28;20032;-75
2023/08/29 00:48:08;;;;;;;5.22;1.20;;;22.40;50.00;;;;;;5084897;28;20020;-74
2023/08/29 00:50:36;;;;;;;2.33;1.25;;;22.50;47.30;;;;;;5086005;28;20475;-73
2023/08/29 00:53:06;;;;;;;2.10;1.10;;;22.40;46.90;;;;;;5076532;28;20066;-74
2023/08/29 00:55:35;;;;;;;2.55;1.30;;;22.40;46.70;;;;;;5078008;28;20020;-77
2023/08/29 00:58:05;;;;;;;2.38;1.15;;;22.30;46.70;;;;;;5079053;28;20391;-77
2023/08/29 01:00:33;;;;;;;3.25;1.13;;;22.40;46.30;;;;;;5080307;28;20497;-74
2023/08/29 01:03:02;;;;;;;2.28;1.30;;;22.40;46.20;;;;;;5085742;28;20105;-75
2023/08/29 01:05:29;;;;;;;4.50;1.50;;;22.50;46.80;;;;;;5060132;28;20057;-77
2023/08/29 01:08:00;;;;;;;4.80;1.30;;;22.70;47.20;;;;;;5085129;28;20021;-78
2023/08/29 01:10:56;;;;;;;2.35;1.52;;;22.70;49.30;;;;;;5084751;28;20467;-75
2023/08/29 01:13:31;;;;;;;6.70;1.63;;;22.80;50.40;;;;;;5074711;28;20036;-74
2023/08/29 01:16:03;;;;;;;5.65;1.45;;;22.80;51.00;;;;;;5078011;28;20032;-74
2023/08/29 01:18:32;;;;;;;5.43;1.50;;;23.10;49.90;;;;;;5073596;28;20379;-75
2023/08/29 01:21:38;;;;;;;4.53;1.60;;;23.10;50.40;;;;;;5088973;28;20024;-74
2023/08/29 01:24:23;;;;;;;4.78;1.70;;;23.10;50.70;;;;;;5065658;28;20367;-75
2023/08/29 01:26:52;;;;;;;6.68;1.75;;;23.00;51.40;;;;;;5072315;28;20071;-74
2023/08/29 01:29:21;;;;;;;5.45;1.80;;;23.10;51.70;;;;;;5072558;28;20403;-75
2023/08/29 01:31:50;;;;;;;5.25;1.63;;;23.00;51.80;;;;;;5077584;28;20099;-79
2023/08/29 01:34:18;;;;;;;4.35;1.58;;;23.00;51.90;;;;;;5083708;28;20051;-74
2023/08/29 01:36:47;;;;;;;5.03;1.55;;;23.00;52.10;;;;;;5083768;28;20482;-75
2023/08/29 01:39:27;;;;;;;3.80;1.67;;;23.00;51.80;;;;;;5071042;28;20492;-75
2023/08/29 01:41:55;;;;;;;3.13;1.27;;;23.10;51.70;;;;;;5066501;28;20036;-75
2023/08/29 01:44:22;;;;;;;2.13;1.33;;;23.10;51.20;;;;;;5072009;28;20032;-75
2023/08/29 01:46:50;;;;;;;2.15;1.45;;;23.10;52.00;;;;;;5071034;28;20040;-77
2023/08/29 01:49:18;;;;;;;6.50;1.75;;;23.00;51.50;;;;;;5070359;28;20029;-75
2023/08/29 01:51:47;;;;;;;6.13;2.00;;;23.00;51.70;;;;;;5071729;28;20094;-74
2023/08/29 01:54:17;;;;;;;6.45;1.60;;;22.90;51.90;;;;;;5072024;28;20058;-75
2023/08/29 01:56:46;;;;;;;3.13;1.70;;;22.80;52.20;;;;;;5076972;28;20074;-77
2023/08/29 01:59:13;;;;;;;2.88;1.50;;;22.80;52.40;;;;;;5074274;28;20025;-74
2023/08/29 02:01:42;;;;;;;4.97;2.00;;;22.80;52.70;;;;;;5079009;28;20368;-75
2023/08/29 02:04:09;;;;;;;3.22;1.73;;;22.80;52.90;;;;;;5074769;28;20338;-74
2023/08/29 02:06:37;;;;;;;6.20;1.60;;;22.80;53.00;;;;;;5075360;28;20029;-73
2023/08/29 02:09:04;;;;;;;5.38;2.00;;;22.80;52.80;;;;;;5073933;28;20024;-73
2023/08/29 02:11:31;;;;;;;5.22;2.00;;;22.80;52.50;;;;;;5075895;28;20024;-73
2023/08/29 02:13:59;;;;;;;4.70;2.10;;;22.70;52.90;;;;;;5074877;28;20024;-74
2023/08/29 02:16:31;;;;;;;3.35;1.75;;;22.60;53.20;;;;;;5073091;28;20025;-75
2023/08/29 02:18:58;;;;;;;2.28;1.73;;;22.70;53.20;;;;;;5072517;28;20020;-75
2023/08/29 02:21:27;;;;;;;2.72;1.90;;;22.80;52.50;;;;;;5072579;28;20063;-75
2023/08/29 02:23:54;;;;;;;5.25;1.70;;;22.80;52.70;;;;;;5072467;28;20024;-75
2023/08/29 02:26:23;;;;;;;3.20;1.70;;;22.70;52.90;;;;;;5072425;28;20032;-75
2023/08/29 02:28:53;;;;;;;4.22;1.48;;;22.70;53.10;;;;;;5072310;28;20100;-76
2023/08/29 02:31:20;;;;;;;6.53;2.20;;;22.60;53.20;;;;;;5072643;28;20020;-80
2023/08/29 02:33:48;;;;;;;3.67;1.95;;;22.60;53.70;;;;;;5073379;28;20035;-81
2023/08/29 02:36:16;;;;;;;3.97;1.75;;;22.50;53.80;;;;;;5073729;28;20446;-86
2023/08/29 02:38:45;;;;;;;4.07;2.13;;;22.50;54.00;;;;;;5073762;28;20017;-77
2023/08/29 02:41:14;;;;;;;4.35;2.40;;;22.50;53.80;;;;;;5072884;28;20522;-75
2023/08/29 02:43:41;;;;;;;4.60;1.98;;;22.50;53.70;;;;;;5072566;28;20039;-76
2023/08/29 02:46:09;;;;;;;3.20;1.80;;;22.50;53.60;;;;;;5077217;28;20550;-74
2023/08/29 02:48:39;;;;;;;2.80;1.65;;;22.50;53.80;;;;;;5088797;28;20025;-75
2023/08/29 02:51:06;;;;;;;4.47;1.95;;;22.50;53.90;;;;;;5087929;28;20038;-73
2023/08/29 02:53:33;;;;;;;6.07;2.30;;;22.50;54.00;;;;;;5088805;28;20070;-75
2023/08/29 02:56:01;;;;;;;4.47;2.00;;;22.50;53.80;;;;;;5081385;28;20017;-77
2023/08/29 02:58:28;;;;;;;4.82;2.33;;;22.40;53.50;;;;;;5081218;28;20036;-90
2023/08/29 03:01:03;;;;;;;3.33;2.03;;;22.40;53.90;;;;;;5076096;28;20021;-78
2023/08/29 03:03:39;;;;;;;5.05;1.85;;;22.40;54.30;;;;;;5079507;28;20028;-74
2023/08/29 03:06:06;;;;;;;4.18;1.90;;;22.40;54.40;;;;;;5079030;28;20384;-81
2023/08/29 03:08:37;;;;;;;4.72;1.92;;;22.40;54.40;;;;;;5077010;28;20049;-78
2023/08/29 03:11:04;;;;;;;3.40;1.88;;;22.40;54.20;;;;;;5076263;28;20039;-79
2023/08/29 03:13:32;;;;;;;4.70;2.00;;;22.50;54.50;;;;;;5076394;28;20499;-81
2023/08/29 03:16:00;;;;;;;3.42;1.98;;;22.40;54.50;;;;;;5078155;28;20029;-82
2023/08/29 03:18:28;;;;;;;5.07;2.10;;;22.50;54.80;;;;;;5076077;28;20020;-87
2023/08/29 03:20:56;;;;;;;5.93;2.20;;;22.40;54.90;;;;;;5075867;28;20020;-78
2023/08/29 03:23:30;;;;;;;4.85;2.00;;;22.40;55.00;;;;;;5075726;28;20024;-81
2023/08/29 03:26:09;;;;;;;3.33;1.90;;;22.40;54.90;;;;;;5076078;28;20051;-79
2023/08/29 03:28:37;;;;;;;4.15;1.70;;;22.40;55.40;;;;;;5075531;28;20016;-82
2023/08/29 03:31:14;;;;;;;5.43;2.20;;;22.50;55.60;;;;;;5075274;28;20041;-87
2023/08/29 03:33:44;;;;;;;7.00;2.10;;;22.40;55.90;;;;;;5075780;28;20219;-88
2023/08/29 03:36:11;;;;;;;5.88;2.22;;;22.40;56.30;;;;;;5075878;28;20024;-81
2023/08/29 03:38:40;;;;;;;4.15;2.00;;;22.40;56.20;;;;;;5075702;28;20024;-75
2023/08/29 03:41:08;;;;;;;5.88;2.13;;;22.40;56.20;;;;;;5075823;28;20029;-81
2023/08/29 03:43:37;;;;;;;3.67;2.30;;;22.40;56.20;;;;;;5075455;28;20017;-76
2023/08/29 03:46:07;;;;;;;4.90;2.40;;;22.40;56.00;;;;;;5075013;28;20040;-75
2023/08/29 03:48:36;;;;;;;4.43;2.33;;;22.40;56.40;;;;;;5075249;28;20092;-75
2023/08/29 03:51:06;;;;;;;3.50;2.00;;;22.40;56.50;;;;;;5075130;28;20028;-88
2023/08/29 03:53:34;;;;;;;3.25;2.13;;;22.50;55.70;;;;;;5075132;28;20024;-84
2023/08/29 03:56:04;;;;;;;4.18;2.20;;;22.50;55.00;;;;;;5075161;28;20158;-78
2023/08/29 03:58:33;;;;;;;6.15;2.08;;;22.50;55.60;;;;;;5075486;28;20031;-84
2023/08/29 04:01:04;;;;;;;5.00;1.90;;;22.50;55.30;;;;;;5075207;28;20024;-86
2023/08/29 04:03:32;;;;;;;4.20;2.15;;;22.50;55.50;;;;;;5074278;28;20048;-89
2023/08/29 04:06:01;;;;;;;4.75;2.17;;;22.40;55.40;;;;;;5075612;28;20081;-90
2023/08/29 04:08:29;;;;;;;4.32;1.92;;;22.40;55.30;;;;;;5075424;28;20096;-80
2023/08/29 04:11:02;;;;;;;6.03;2.10;;;22.40;55.60;;;;;;5073691;28;20297;-90
2023/08/29 04:13:36;;;;;;;3.70;1.83;;;22.40;55.30;;;;;;5075356;28;20017;-87
2023/08/29 04:16:04;;;;;;;4.10;1.80;;;22.30;55.30;;;;;;5075116;28;20033;-81
2023/08/29 04:18:33;;;;;;;6.82;1.85;;;22.40;55.30;;;;;;5074544;28;20353;-89
2023/08/29 04:21:02;;;;;;;3.25;1.73;;;22.40;55.20;;;;;;5075356;28;20036;-88
2023/08/29 04:23:30;;;;;;;4.20;2.35;;;22.40;55.40;;;;;;5075244;28;20475;-89
2023/08/29 04:26:00;;;;;;;5.07;2.00;;;22.40;55.50;;;;;;5075132;28;20395;-81
2023/08/29 04:28:27;;;;;;;5.57;2.08;;;22.50;55.60;;;;;;5073645;28;20017;-87
2023/08/29 04:30:56;;;;;;;3.85;1.80;;;22.40;55.50;;;;;;5074486;28;20071;-85
2023/08/29 04:33:24;;;;;;;4.28;1.58;;;22.40;55.70;;;;;;5075055;28;20036;-94
2023/08/29 04:35:52;;;;;;;4.95;1.90;;;22.50;55.50;;;;;;5073716;28;20056;-84
2023/08/29 04:38:20;;;;;;;2.90;1.60;;;22.50;55.30;;;;;;5074817;28;20356;-89
2023/08/29 04:40:47;;;;;;;3.63;1.80;;;22.40;55.10;;;;;;5074417;28;20383;-89
2023/08/29 04:43:14;;;;;;;2.13;1.65;;;22.30;55.00;;;;;;5074803;28;20071;-82
2023/08/29 04:45:43;;;;;;;4.72;1.90;;;22.40;55.30;;;;;;5075146;28;20095;-85
2023/08/29 04:48:17;;;;;;;3.78;1.70;;;22.40;54.70;;;;;;5074724;28;20089;-88
2023/08/29 04:50:45;;;;;;;5.18;1.95;;;22.30;54.80;;;;;;5074980;28;20095;-82
2023/08/29 04:53:13;;;;;;;5.55;2.20;;;22.30;54.80;;;;;;5074687;28;20070;-88
2023/08/29 04:55:41;;;;;;;4.53;2.28;;;22.30;54.70;;;;;;5074529;28;20028;-85
2023/08/29 04:58:09;;;;;;;3.45;1.70;;;22.30;54.90;;;;;;5075161;28;20021;-88
2023/08/29 05:00:39;;;;;;;3.85;2.08;;;22.30;54.70;;;;;;5075444;28;20025;-79
2023/08/29 05:03:06;;;;;;;3.80;1.70;;;22.30;55.00;;;;;;5073789;28;20020;-80
2023/08/29 05:05:34;;;;;;;4.03;1.95;;;22.30;54.80;;;;;;5073681;28;20033;-89
2023/08/29 05:08:03;;;;;;;5.88;2.15;;;22.30;54.80;;;;;;5075191;28;20031;-83
2023/08/29 05:10:34;;;;;;;4.30;1.98;;;22.30;55.00;;;;;;5082118;28;20028;-75
2023/08/29 05:13:03;;;;;;;3.67;2.42;;;22.20;55.00;;;;;;5079232;28;20031;-79
2023/08/29 05:15:32;;;;;;;4.20;2.40;;;22.10;55.20;;;;;;5079812;28;20044;-75
2023/08/29 05:18:01;;;;;;;5.15;1.50;;;22.10;55.50;;;;;;5077934;28;20089;-79
2023/08/29 05:20:29;;;;;;;4.78;1.85;;;22.10;55.80;;;;;;5074170;28;20044;-81
2023/08/29 05:22:57;;;;;;;3.17;2.03;;;22.10;56.00;;;;;;5074886;28;20078;-76
2023/08/29 05:25:25;;;;;;;8.50;2.28;;;22.10;56.40;;;;;;5078346;28;20061;-77
2023/08/29 05:27:57;;;;;;;5.30;1.90;;;22.10;56.40;;;;;;5076017;28;20048;-82
2023/08/29 05:30:25;;;;;;;5.00;1.92;;;22.10;56.70;;;;;;5073635;28;20048;-82
2023/08/29 05:32:57;;;;;;;5.13;1.60;;;22.10;56.90;;;;;;5074100;28;20433;-79
2023/08/29 05:35:24;;;;;;;6.47;1.73;;;22.00;57.00;;;;;;5078071;28;20442;-86
2023/08/29 05:37:51;;;;;;;3.85;1.90;;;22.00;57.20;;;;;;5079332;28;20027;-78
2023/08/29 05:40:19;;;;;;;3.65;2.00;;;22.00;57.10;;;;;;5078950;28;20052;-75
2023/08/29 05:42:48;;;;;;;6.28;1.90;;;21.90;57.40;;;;;;5073605;28;20036;-82
2023/08/29 05:45:15;;;;;;;5.30;1.90;;;21.90;57.60;;;;;;5072909;28;20096;-87
2023/08/29 05:47:44;;;;;;;5.82;2.00;;;21.80;57.70;;;;;;5073539;28;20494;-82
2023/08/29 05:50:12;;;;;;;3.45;1.90;;;21.80;57.70;;;;;;5074253;28;20059;-84
2023/08/29 05:52:40;;;;;;;5.10;1.83;;;21.80;58.20;;;;;;5073549;28;20035;-80
2023/08/29 05:55:08;;;;;;;5.00;1.90;;;21.70;58.40;;;;;;5073686;28;20471;-79
2023/08/29 05:57:36;;;;;;;5.72;1.80;;;21.70;58.50;;;;;;5073629;28;20032;-82
2023/08/29 06:00:14;;;;;;;3.95;2.00;;;21.70;58.10;;;;;;5074022;28;20544;-79
2023/08/29 06:02:44;;;;;;;10.95;2.13;;;21.60;58.50;;;;;;5073545;28;20020;-85
2023/08/29 06:05:11;;;;;;;5.60;1.98;;;21.60;58.60;;;;;;5072798;28;20074;-75
2023/08/29 06:07:39;;;;;;;5.68;1.70;;;21.50;58.70;;;;;;5073151;28;20517;-81
2023/08/29 06:10:07;;;;;;;4.15;1.70;;;21.50;58.90;;;;;;5073108;28;20052;-81
2023/08/29 06:12:35;;;;;;;4.82;1.85;;;21.50;58.70;;;;;;5072915;28;20471;-80
2023/08/29 06:15:03;;;;;;;4.70;2.05;;;21.40;59.10;;;;;;5072617;28;20490;-79
2023/08/29 06:17:30;;;;;;;3.45;1.90;;;21.40;59.00;;;;;;5073124;28;20024;-88
2023/08/29 06:19:59;;;;;;;2.70;1.88;;;21.30;59.20;;;;;;5076462;28;20517;-81
2023/08/29 06:22:26;;;;;;;5.60;2.22;;;21.30;59.20;;;;;;5077301;28;20047;-88
2023/08/29 06:24:54;;;;;;;4.63;1.92;;;21.20;59.60;;;;;;5077328;28;20135;-79
2023/08/29 06:27:23;;;;;;;7.97;2.15;;;21.20;59.60;;;;;;5077174;28;20024;-76
2023/08/29 06:29:51;;;;;;;3.70;2.13;;;21.20;59.90;;;;;;5077124;28;20379;-88
2023/08/29 06:32:19;;;;;;;5.50;2.55;;;21.10;60.10;;;;;;5077138;28;20495;-82
2023/08/29 06:34:46;;;;;;;3.95;2.28;;;21.00;60.30;;;;;;5076353;28;20105;-75
2023/08/29 06:37:16;;;;;;;3.97;2.40;;;21.00;60.60;;;;;;5076514;28;20036;-77
2023/08/29 06:39:43;;;;;;;9.20;2.25;;;21.00;60.80;;;;;;5077436;28;20033;-79
2023/08/29 06:42:14;;;;;;;6.40;2.20;;;20.90;60.70;;;;;;5077341;28;20017;-87
2023/08/29 06:44:41;;;;;;;4.60;1.98;;;20.90;60.80;;;;;;5077074;28;20099;-87
2023/08/29 06:47:10;;;;;;;6.97;2.55;;;20.80;61.10;;;;;;5076480;28;20039;-78
2023/08/29 06:49:37;;;;;;;6.10;2.35;;;20.80;61.30;;;;;;5076550;28;20017;-82
2023/08/29 06:52:05;;;;;;;4.40;2.40;;;20.80;61.20;;;;;;5076821;28;20035;-83
2023/08/29 06:54:35;;;;;;;8.27;2.67;;;20.80;61.40;;;;;;5077212;28;20031;-90
2023/08/29 06:57:03;;;;;;;4.70;2.15;;;20.80;61.40;;;;;;5084554;28;20043;-74
2023/08/29 06:59:30;;;;;;;6.43;2.42;;;20.80;61.40;;;;;;5087553;28;20020;-73
2023/08/29 07:01:58;;;;;;;4.90;2.17;;;20.70;61.60;;;;;;5086250;28;20511;-74
2023/08/29 07:04:25;;;;;;;6.22;2.30;;;20.70;61.60;;;;;;5085513;28;20016;-74
2023/08/29 07:06:55;;;;;;;3.63;2.22;;;20.50;62.00;;;;;;5081582;28;20036;-83
2023/08/29 07:09:22;;;;;;;2.35;1.88;;;20.50;62.50;;;;;;5076197;28;20391;-86
2023/08/29 07:11:49;;;;;;;3.00;2.00;;;20.40;62.50;;;;;;5076512;28;20028;-90
2023/08/29 07:14:17;;;;;;;4.50;2.35;;;20.30;62.40;;;;;;5076524;28;20499;-86
2023/08/29 07:16:47;;;;;;;4.78;2.33;;;20.30;62.60;;;;;;5076126;28;20078;-80
2023/08/29 07:19:15;;;;;;;3.88;2.40;;;20.20;62.90;;;;;;5075585;28;20024;-82
2023/08/29 07:21:44;;;;;;;7.63;3.17;;;20.20;63.30;;;;;;5076176;28;20080;-79
2023/08/29 07:24:11;;;;;;;5.88;2.40;;;20.20;63.10;;;;;;5075670;28;20499;-80
2023/08/29 07:26:40;;;;;;;5.55;2.85;;;20.10;63.40;;;;;;5076187;28;20032;-89
2023/08/29 07:29:07;;;;;;;5.70;2.45;;;20.10;63.40;;;;;;5075290;28;20023;-87
2023/08/29 07:31:34;;;;;;;5.97;2.30;;;20.00;63.50;;;;;;5074576;28;20036;-76
2023/08/29 07:34:02;;;;;;;5.10;2.17;;;19.90;63.70;;;;;;5075467;28;20020;-76
2023/08/29 07:36:30;;;;;;;4.25;2.28;;;19.90;63.80;;;;;;5075917;28;20410;-83
2023/08/29 07:38:58;;;;;;;5.28;2.80;;;19.90;64.10;;;;;;5075224;28;20111;-80
2023/08/29 07:41:25;;;;;;;9.02;2.50;;;19.80;64.20;;;;;;5075027;28;20078;-75
2023/08/29 07:43:52;;;;;;;8.35;2.22;;;19.80;64.60;;;;;;5074975;28;20032;-77
2023/08/29 07:46:23;;;;;;;5.35;2.10;;;19.80;64.40;;;;;;5075232;28;20029;-77
2023/08/29 07:48:53;;;;;;;5.30;2.33;;;19.70;65.00;;;;;;5075267;28;20042;-84
2023/08/29 07:51:23;;;;;;;7.72;2.40;;;19.70;65.30;;;;;;5075125;28;20042;-76
2023/08/29 07:53:50;;;;;;;6.70;2.72;;;19.60;65.80;;;;;;5074906;28;20020;-77
2023/08/29 07:56:17;;;;;;;5.93;2.22;;;19.60;66.40;;;;;;5074843;28;20676;-84
2023/08/29 07:58:45;;;;;;;5.50;2.10;;;19.50;66.30;;;;;;5074718;28;20382;-79
2023/08/29 08:01:12;;;;;;;9.57;2.53;;;19.50;66.50;;;;;;5074711;28;20021;-85
2023/08/29 08:03:39;;;;;;;3.97;2.10;;;19.50;67.10;;;;;;5074665;28;20020;-84
2023/08/29 08:06:07;;;;;;;7.57;2.28;;;19.50;67.40;;;;;;5074513;28;20051;-81
2023/08/29 08:08:34;;;;;;;6.20;2.10;;;19.60;68.00;;;;;;5074691;28;20062;-80
2023/08/29 08:11:04;;;;;;;7.80;2.50;;;19.60;68.00;;;;;;5074613;28;20514;-77
2023/08/29 08:13:32;;;;;;;7.70;2.00;;;19.60;68.10;;;;;;5074332;28;20133;-82
2023/08/29 08:16:00;;;;;;;10.65;3.00;;;19.50;68.50;;;;;;5074479;28;20025;-78
2023/08/29 08:18:27;;;;;;;3.30;2.03;;;19.50;68.70;;;;;;5074619;28;20051;-78
2023/08/29 08:20:56;;;;;;;7.32;1.90;;;19.50;69.10;;;;;;5074169;28;20379;-80
2023/08/29 08:23:23;;;;;;;5.50;2.08;;;19.40;69.10;;;;;;5074332;28;20025;-80
2023/08/29 08:25:50;;;;;;;5.10;2.20;;;19.40;69.50;;;;;;5074288;28;20125;-87
2023/08/29 08:28:18;;;;;;;4.70;2.17;;;19.40;69.60;;;;;;5076311;28;20029;-94
2023/08/29 08:30:45;;;;;;;5.78;1.92;;;19.50;69.80;;;;;;5075954;28;20028;-88
2023/08/29 08:33:14;;;;;;;6.72;2.40;;;19.40;70.20;;;;;;5076736;28;20115;-93
2023/08/29 08:35:41;;;;;;;6.55;2.20;;;19.50;70.20;;;;;;5075078;28;20028;-85
2023/08/29 08:38:09;;;;;;;6.03;2.60;;;19.40;70.40;;;;;;5076240;28;20028;-88
2023/08/29 08:40:38;;;;;;;5.65;2.63;;;19.30;70.80;;;;;;5076007;28;20028;-93
2023/08/29 08:43:08;;;;;;;7.35;2.28;;;19.30;71.00;;;;;;5075382;28;20133;-91
2023/08/29 08:45:38;;;;;;;5.55;2.30;;;19.30;71.30;;;;;;5074982;28;20032;-90
2023/08/29 08:48:06;;;;;;;6.55;1.98;;;19.30;71.30;;;;;;5076129;28;20052;-93
2023/08/29 08:50:33;;;;;;;9.25;2.63;;;19.30;71.20;;;;;;5075414;28;20024;-77
2023/08/29 08:53:04;;;;;;;7.30;2.50;;;19.20;71.50;;;;;;5075134;28;20036;-82
2023/08/29 08:55:31;;;;;;;8.10;2.45;;;19.20;71.30;;;;;;5075645;28;20017;-79
2023/08/29 08:57:59;;;;;;;6.20;2.53;;;19.20;71.60;;;;;;5074762;28;20074;-81
2023/08/29 09:00:27;;;;;;;4.65;2.22;;;19.20;71.40;;;;;;5075826;28;20017;-78
2023/08/29 09:02:57;;;;;;;9.50;2.80;;;19.30;71.40;;;;;;5074123;28;20391;-81
2023/08/29 09:05:25;;;;;;;9.27;2.67;;;19.20;71.40;;;;;;5074308;28;20037;-83
2023/08/29 09:07:52;;;;;;;4.35;1.95;;;19.20;71.50;;;;;;5075064;28;20090;-84
2023/08/29 09:10:21;;;;;;;6.30;2.60;;;19.20;71.40;;;;;;5075401;28;20024;-88
2023/08/29 09:12:55;;;;;;;8.48;2.90;;;19.20;71.40;;;;;;5076488;28;20055;-80
2023/08/29 09:15:25;;;;;;;7.07;2.20;;;19.20;71.50;;;;;;5078011;28;20020;-85
2023/08/29 09:17:54;;;;;;;6.20;2.72;;;19.20;71.50;;;;;;5077958;28;20069;-90
2023/08/29 09:20:28;;;;;;;4.75;2.20;;;19.20;71.50;;;;;;5075415;28;20028;-86
2023/08/29 09:22:55;;;;;;;6.50;2.55;;;19.20;71.40;;;;;;5076123;28;20035;-82
2023/08/29 09:25:26;;;;;;;8.70;2.53;;;19.20;71.40;;;;;;5076141;28;20041;-86
2023/08/29 09:27:53;;;;;;;5.70;2.08;;;19.20;71.50;;;;;;5076096;28;20033;-78
2023/08/29 09:30:21;;;;;;;6.65;2.00;;;19.20;71.80;;;;;;5075561;28;20023;-84
2023/08/29 09:32:52;;;;;;;7.10;1.83;;;19.10;71.70;;;;;;5073949;28;20502;-83
2023/08/29 09:35:24;;;;;;;8.27;2.78;;;19.10;72.00;;;;;;5074306;28;20035;-83
2023/08/29 09:37:55;;;;;;;5.25;2.03;;;19.20;71.90;;;;;;5074367;28;20442;-85
2023/08/29 09:40:44;;;;;;;5.80;2.08;;;19.10;72.00;;;;;;5074517;28;20036;-83
2023/08/29 09:43:14;;;;;;;5.30;2.40;;;19.10;71.80;;;;;;5074004;28;20034;-86
2023/08/29 09:45:48;;;;;;;4.57;1.92;;;19.10;72.20;;;;;;5073627;28;20391;-85
2023/08/29 09:48:15;;;;;;;5.75;2.13;;;19.00;72.20;;;;;;5073043;28;20090;-81
2023/08/29 09:50:48;;;;;;;5.95;2.45;;;19.00;72.50;;;;;;5074486;28;20032;-82
2023/08/29 09:53:21;;;;;;;5.25;2.17;;;19.00;72.30;;;;;;5074588;28;20108;-86
2023/08/29 09:55:59;;;;;;;12.25;2.70;;;19.00;72.30;;;;;;5077644;28;20039;-87
2023/08/29 09:58:29;;;;;;;4.63;2.13;;;18.90;72.40;;;;;;5077691;28;20115;-84
2023/08/29 10:01:00;;;;;;;4.50;2.53;;;18.90;72.80;;;;;;5078369;28;20070;-82
2023/08/29 10:03:30;;;;;;;6.38;2.13;;;19.00;72.60;;;;;;5078675;28;20126;-88
2023/08/29 10:05:59;;;;;;;5.80;2.38;;;18.90;72.70;;;;;;5084763;28;20044;-83
2023/08/29 10:09:00;;;;;;;8.02;1.95;;;18.90;72.90;;;;;;5084700;28;20104;-84
2023/08/29 10:11:29;;;;;;;6.47;2.08;;;19.00;72.90;;;;;;5078571;28;20061;-83
2023/08/29 10:14:00;;;;;;;7.43;2.53;;;19.00;72.70;;;;;;5084893;28;20023;-78
2023/08/29 10:16:28;;;;;;;6.20;2.13;;;18.90;72.80;;;;;;5079428;28;20027;-90
2023/08/29 10:18:56;;;;;;;7.43;2.10;;;18.80;72.90;;;;;;5082546;28;20107;-79
2023/08/29 10:21:26;;;;;;;7.50;2.30;;;18.90;73.10;;;;;;5082081;28;20071;-81
2023/08/29 10:23:54;;;;;;;7.03;1.98;;;18.90;73.20;;;;;;5083682;28;20036;-77
2023/08/29 10:26:25;;;;;;;12.18;2.35;;;18.80;73.10;;;;;;5082816;28;20063;-84
2023/08/29 10:28:54;;;;;;;8.20;2.28;;;18.80;73.20;;;;;;5079289;28;20104;-81
2023/08/29 10:31:21;;;;;;;7.32;2.20;;;18.80;73.40;;;;;;5081657;28;20392;-85
2023/08/29 10:33:49;;;;;;;7.60;2.13;;;18.80;73.40;;;;;;5082848;28;20020;-81
2023/08/29 10:36:17;;;;;;;7.00;2.20;;;18.80;73.30;;;;;;5082817;28;20029;-76
2023/08/29 10:38:53;;;;;;;7.38;2.42;;;18.80;73.50;;;;;;5084810;28;20028;-76
2023/08/29 10:41:20;;;;;;;6.78;1.80;;;18.80;73.70;;;;;;5083332;28;20040;-90
2023/08/29 10:44:11;;;;;;;5.15;2.20;;;18.80;73.70;;;;;;5081872;28;20052;-75
2023/08/29 10:47:26;;;;;;;4.10;2.00;;;18.80;73.70;;;;;;5083581;28;20546;-76
2023/08/29 10:50:08;;;;;;;8.70;2.40;;;18.90;73.80;;;;;;5088790;28;20047;-75
2023/08/29 10:52:41;;;;;;;4.13;1.73;;;18.90;73.70;;;;;;5089258;28;20029;-75
2023/08/29 10:55:28;;;;;;;4.63;2.20;;;18.90;73.60;;;;;;5090698;28;20040;-75
2023/08/29 10:57:58;;;;;;;8.10;2.50;;;18.90;74.00;;;;;;5087995;28;20046;-78
2023/08/29 11:00:55;;;;;;;8.23;2.00;;;18.90;73.90;;;;;;5089556;28;20025;-74
2023/08/29 11:03:50;;;;;;;7.03;2.33;;;19.00;73.70;;;;;;5089140;28;20036;-74
2023/08/29 11:06:25;;;;;;;6.85;2.15;;;19.00;74.20;;;;;;5092161;28;20042;-75
2023/08/29 11:09:23;;;;;;;6.65;1.88;;;19.00;74.10;;;;;;5096283;28;20164;-75
2023/08/29 11:12:18;;;;;;;5.45;2.15;;;19.00;74.00;;;;;;5085587;28;20040;-80
2023/08/29 11:14:53;;;;;;;5.93;2.47;;;19.00;74.10;;;;;;5081722;28;20025;-87
2023/08/29 11:17:25;;;;;;;6.53;2.15;;;19.00;74.20;;;;;;5080183;28;20024;-85
2023/08/29 11:20:02;;;;;;;7.03;2.20;;;18.90;74.40;;;;;;5083053;28;20029;-76
2023/08/29 11:22:31;;;;;;;10.43;2.90;;;18.80;74.50;;;;;;5083802;28;20025;-87
2023/08/29 11:25:01;;;;;;;7.50;3.00;;;18.90;74.30;;;;;;5077068;28;20564;-87
2023/08/29 11:27:29;;;;;;;6.10;2.58;;;18.90;74.30;;;;;;5077492;28;20032;-79
2023/08/29 11:30:10;;;;;;;6.30;2.88;;;18.90;74.20;;;;;;5077532;28;20376;-90
2023/08/29 11:32:39;;;;;;;9.60;2.75;;;18.80;74.40;;;;;;5077111;28;20028;-89
2023/08/29 11:35:16;;;;;;;7.50;2.42;;;18.80;74.50;;;;;;5076857;28;20027;-90
2023/08/29 11:37:49;;;;;;;4.68;2.30;;;18.80;74.50;;;;;;5076866;28;20032;-86
2023/08/29 11:40:23;;;;;;;9.13;3.00;;;18.80;74.50;;;;;;5076613;28;20025;-91
2023/08/29 11:42:51;;;;;;;7.13;3.17;;;18.80;74.40;;;;;;5076439;28;20056;-90
2023/08/29 11:45:19;;;;;;;9.57;3.10;;;18.80;74.50;;;;;;5074025;28;20025;-90
2023/08/29 11:47:49;;;;;;;6.35;2.75;;;18.80;74.50;;;;;;5075709;28;20199;-87
2023/08/29 11:50:19;;;;;;;4.45;3.03;;;18.70;74.20;;;;;;5076213;28;20017;-83
2023/08/29 11:52:48;;;;;;;6.38;2.75;;;18.70;74.20;;;;;;5076767;28;20020;-90
2023/08/29 11:55:17;;;;;;;8.98;3.42;;;18.70;74.30;;;;;;5075993;28;20017;-91
2023/08/29 11:57:44;;;;;;;6.65;3.03;;;18.70;74.30;;;;;;5076151;28;20031;-80
2023/08/29 12:00:15;;;;;;;5.43;3.13;;;18.60;74.30;;;;;;5075611;28;20028;-84
2023/08/29 12:02:43;;;;;;;10.48;3.53;;;18.60;74.50;;;;;;5075895;28;20028;-88
2023/08/29 12:05:12;;;;;;;10.13;3.45;;;18.60;74.50;;;;;;5075064;28;20013;-82
2023/08/29 12:07:41;;;;;;;6.00;2.72;;;18.60;74.30;;;;;;5075417;28;20069;-85
2023/08/29 12:10:16;;;;;;;7.32;2.92;;;18.60;74.10;;;;;;5075851;28;20028;-84
2023/08/29 12:12:45;;;;;;;7.97;2.47;;;18.50;73.90;;;;;;5075572;28;20493;-84
2023/08/29 12:15:15;;;;;;;7.55;3.03;;;18.50;73.90;;;;;;5075342;28;20020;-80
2023/08/29 12:17:47;;;;;;;5.78;2.67;;;18.50;73.90;;;;;;5075593;28;20024;-89
2023/08/29 12:20:17;;;;;;;5.95;3.00;;;18.40;73.90;;;;;;5075616;28;20487;-91
2023/08/29 12:22:53;;;;;;;7.25;3.38;;;18.30;74.20;;;;;;5074483;28;20438;-77
2023/08/29 12:25:20;;;;;;;4.68;2.97;;;18.30;74.30;;;;;;5074971;28;20040;-87
2023/08/29 12:27:49;;;;;;;8.75;3.50;;;18.30;74.30;;;;;;5074968;28;20488;-91
2023/08/29 12:30:20;;;;;;;8.43;3.88;;;18.30;74.30;;;;;;5074885;28;20099;-83
2023/08/29 12:32:48;;;;;;;7.40;3.45;;;18.20;74.50;;;;;;5075265;28;20162;-90
2023/08/29 12:35:18;;;;;;;8.82;3.10;;;18.20;74.30;;;;;;5074677;28;20024;-86
2023/08/29 12:37:46;;;;;;;6.35;2.90;;;18.20;74.30;;;;;;5075245;28;20107;-92
2023/08/29 12:40:15;;;;;;;6.63;3.08;;;18.20;74.20;;;;;;5075255;28;20028;-92
2023/08/29 12:42:49;;;;;;;4.93;3.20;;;18.20;74.40;;;;;;5074813;28;20370;-85
2023/08/29 12:45:16;;;;;;;5.88;3.30;;;18.20;74.40;;;;;;5073921;28;20098;-75
2023/08/29 12:47:45;;;;;;;8.07;2.90;;;18.20;74.10;;;;;;5074408;28;20039;-80
2023/08/29 12:50:13;;;;;;;6.22;2.90;;;18.00;74.10;;;;;;5074651;28;20020;-78
2023/08/29 12:52:40;;;;;;;6.97;2.60;;;18.00;74.40;;;;;;5073965;28;20472;-80
2023/08/29 12:55:11;;;;;;;7.28;3.20;;;17.90;74.50;;;;;;5073641;28;20059;-75
2023/08/29 12:57:39;;;;;;;6.95;3.47;;;17.80;74.70;;;;;;5073780;28;20036;-74
2023/08/29 13:00:07;;;;;;;8.05;3.28;;;17.80;74.80;;;;;;5073935;28;20016;-76